createdAt,value
2019-04-11T00:02:28.901Z,68.36
2019-04-11T00:04:58.781Z,68.99
2019-04-11T00:07:28.094Z,68.65
2019-04-11T00:09:57.311Z,68.16
2019-04-11T00:12:26.398Z,68.26
2019-04-11T00:14:56.049Z,68.14
2019-04-11T00:17:25.873Z,68.14
2019-04-11T00:19:55.810Z,69.14
2019-04-11T00:22:25.677Z,68.49
2019-04-11T00:24:55.545Z,68.68
2019-04-11T00:27:25.295Z,68.39
2019-04-11T00:29:55.468Z,68.78
2019-04-11T00:32:25.404Z,68.30
2019-04-11T00:34:55.319Z,67.86
2019-04-11T00:37:25.300Z,68.10
2019-04-11T00:39:56.180Z,68.35
2019-04-11T00:42:26.252Z,68.27
2019-04-11T00:44:57.045Z,68.56
2019-04-11T00:47:26.496Z,69.06
2019-04-11T00:49:56.846Z,68.67
2019-04-11T00:52:27.816Z,68.26
2019-04-11T00:54:57.409Z,68.50
2019-04-11T00:57:26.565Z,69.42
2019-04-11T00:59:56.475Z,69.71
2019-04-11T01:02:25.984Z,68.61
2019-04-11T01:04:55.356Z,68.55
2019-04-11T01:07:24.963Z,68.78
2019-04-11T01:09:54.874Z,69.30
2019-04-11T01:12:24.776Z,69.22
2019-04-11T01:14:55.222Z,68.64
2019-04-11T01:17:25.469Z,69.18
2019-04-11T01:19:55.623Z,69.24
2019-04-11T01:22:26.432Z,70.65
2019-04-11T01:24:56.387Z,69.96
2019-04-11T01:27:26.202Z,69.75
2019-04-11T01:29:55.978Z,70.09
2019-04-11T01:32:26.399Z,69.41
2019-04-11T01:34:57.258Z,69.80
2019-04-11T01:37:26.536Z,69.81
2019-04-11T01:39:59.364Z,69.96
2019-04-11T01:42:29.119Z,69.48
2019-04-11T01:44:58.566Z,69.75
2019-04-11T01:47:57.318Z,69.58
2019-04-11T01:50:29.895Z,69.80
2019-04-11T01:53:00.448Z,69.56
2019-04-11T01:55:29.800Z,69.42
2019-04-11T01:57:58.989Z,69.86
2019-04-11T02:00:50.929Z,69.67
2019-04-11T02:03:25.603Z,69.66
2019-04-11T02:05:54.690Z,70.13
2019-04-11T02:08:25.026Z,69.95
2019-04-11T02:10:54.585Z,70.44
2019-04-11T02:13:24.189Z,70.16
2019-04-11T02:15:56.733Z,70.70
2019-04-11T02:18:25.587Z,70.51
2019-04-11T02:20:55.749Z,71.01
2019-04-11T02:23:39.370Z,70.58
2019-04-11T02:26:18.879Z,70.76
2019-04-11T02:28:48.785Z,70.67
2019-04-11T02:31:20.412Z,70.61
2019-04-11T02:33:51.166Z,70.39
2019-04-11T02:36:20.814Z,70.63
2019-04-11T02:38:56.036Z,70.64
2019-04-11T02:41:21.863Z,70.77
2019-04-11T02:44:01.601Z,70.78
2019-04-11T02:46:38.511Z,70.71
2019-04-11T02:49:03.345Z,71.16
2019-04-11T02:51:32.462Z,71.20
2019-04-11T02:54:02.387Z,70.99
2019-04-11T02:56:35.719Z,71.02
2019-04-11T02:59:05.457Z,71.14
2019-04-11T03:01:36.458Z,71.02
2019-04-11T03:04:07.240Z,71.41
2019-04-11T03:06:39.254Z,71.82
2019-04-11T03:09:10.920Z,71.76
2019-04-11T03:11:40.981Z,71.85
2019-04-11T03:14:13.914Z,71.34
2019-04-11T03:16:56.710Z,71.29
2019-04-11T03:19:29.633Z,71.26
2019-04-11T03:21:47.372Z,71.93
2019-04-11T03:24:17.668Z,71.88
2019-04-11T03:26:49.733Z,73.06
2019-04-11T03:29:19.916Z,72.04
2019-04-11T03:32:33.713Z,72.29
2019-04-11T03:37:18.956Z,71.95
2019-04-11T03:39:43.995Z,73.24
2019-04-11T03:42:09.483Z,72.91
2019-04-11T03:44:32.964Z,72.68
2019-04-11T03:47:14.732Z,72.80
2019-04-11T03:49:37.541Z,74.71
2019-04-11T03:51:59.299Z,73.42
2019-04-11T03:54:29.467Z,74.36
2019-04-11T03:56:59.401Z,73.96
2019-04-11T03:59:31.159Z,74.33
2019-04-11T04:02:00.809Z,73.98
2019-04-11T04:04:30.569Z,74.52
2019-04-11T04:07:00.186Z,74.26
2019-04-11T04:09:29.919Z,75.09
2019-04-11T04:11:59.732Z,74.32
2019-04-11T04:14:51.565Z,75.46
2019-04-11T04:17:32.849Z,74.89
2019-04-11T04:20:11.147Z,75.91
2019-04-11T04:23:00.914Z,74.64
2019-04-11T04:25:30.156Z,74.62
2019-04-11T04:27:59.553Z,75.00
2019-04-11T04:30:29.903Z,75.16
2019-04-11T04:33:00.652Z,74.70
2019-04-11T04:35:31.672Z,75.55
2019-04-11T04:38:03.032Z,75.04
2019-04-11T04:40:49.604Z,75.14
2019-04-11T04:43:07.488Z,75.04
2019-04-11T04:45:54.117Z,74.72
2019-04-11T04:48:11.160Z,75.54
2019-04-11T04:50:39.190Z,75.43
2019-04-11T04:53:09.227Z,75.71
2019-04-11T04:55:39.211Z,74.50
2019-04-11T04:58:09.182Z,74.96
2019-04-11T05:00:43.663Z,75.72
2019-04-11T05:03:13.520Z,75.16
2019-04-11T05:05:44.254Z,75.98
2019-04-11T05:08:14.471Z,75.32
2019-04-11T05:10:44.973Z,75.32
2019-04-11T05:13:15.514Z,76.49
2019-04-11T05:15:45.405Z,76.09
2019-04-11T05:18:17.323Z,75.82
2019-04-11T05:20:46.317Z,76.03
2019-04-11T05:23:15.413Z,76.47
2019-04-11T05:25:44.658Z,76.22
2019-04-11T05:28:14.146Z,74.98
2019-04-11T05:30:45.029Z,75.16
2019-04-11T05:33:14.596Z,75.01
2019-04-11T05:35:43.797Z,74.89
2019-04-11T05:38:12.891Z,74.80
2019-04-11T05:40:42.022Z,74.43
2019-04-11T05:43:11.468Z,73.99
2019-04-11T05:45:40.767Z,74.64
2019-04-11T05:48:15.718Z,74.21
2019-04-11T05:50:48.438Z,73.30
2019-04-11T05:53:15.861Z,72.00
2019-04-11T05:55:47.480Z,71.73
2019-04-11T05:58:17.693Z,74.18
2019-04-11T06:00:59.702Z,71.54
2019-04-11T06:03:30.247Z,70.90
2019-04-11T06:06:10.819Z,69.79
2019-04-11T06:08:41.971Z,70.50
2019-04-11T06:11:45.463Z,69.18
2019-04-11T06:14:37.566Z,69.58
2019-04-11T06:17:09.966Z,67.95
2019-04-11T06:20:04.305Z,67.38
2019-04-11T06:22:35.936Z,67.59
2019-04-11T06:25:35.870Z,67.27
2019-04-11T06:28:18.555Z,67.98
2019-04-11T06:31:06.057Z,67.73
2019-04-11T06:33:37.938Z,66.73
2019-04-11T06:36:18.127Z,66.26
2019-04-11T06:39:19.078Z,66.41
2019-04-11T06:42:21.549Z,67.58
2019-04-11T06:45:29.406Z,68.13
2019-04-11T06:48:29.684Z,68.49
2019-04-11T06:51:28.164Z,68.63
2019-04-11T06:54:15.295Z,67.48
2019-04-11T06:56:47.477Z,68.58
2019-04-11T06:59:20.607Z,68.01
2019-04-11T07:01:50.872Z,68.32
2019-04-11T07:04:46.304Z,69.02
2019-04-11T07:07:16.362Z,68.81
2019-04-11T07:09:49.235Z,68.19
2019-04-11T07:12:24.358Z,69.36
2019-04-11T07:14:58.449Z,68.00
2019-04-11T07:17:58.980Z,68.11
2019-04-11T07:21:03.020Z,69.25
2019-04-11T07:23:51.354Z,70.26
2019-04-11T07:26:30.598Z,68.28
2019-04-11T07:29:21.915Z,68.75
2019-04-11T07:32:11.696Z,69.09
2019-04-11T07:35:00.140Z,67.99
2019-04-11T07:37:34.346Z,67.97
2019-04-11T07:40:26.780Z,67.28
2019-04-11T07:43:16.875Z,67.05
2019-04-11T07:46:24.585Z,68.34
2019-04-11T07:49:01.712Z,68.63
2019-04-11T07:51:36.400Z,68.47
2019-04-11T07:54:12.204Z,68.29
2019-04-11T07:57:04.238Z,68.00
2019-04-11T08:00:12.861Z,67.99
2019-04-11T08:03:07.881Z,68.30
2019-04-11T08:05:54.763Z,69.02
2019-04-11T08:08:43.459Z,66.99
2019-04-11T08:11:17.823Z,66.16
2019-04-11T08:14:04.786Z,65.98
2019-04-11T08:16:51.773Z,66.01
2019-04-11T08:19:39.086Z,66.79
2019-04-11T08:22:30.725Z,66.34
2019-04-11T08:25:07.214Z,65.70
2019-04-11T08:27:50.937Z,66.09
2019-04-11T08:30:11.089Z,66.06
2019-04-11T08:32:55.457Z,65.14
2019-04-11T08:35:50.186Z,65.47
2019-04-11T08:38:32.733Z,64.08
2019-04-11T08:41:09.405Z,62.55
2019-04-11T08:43:39.352Z,62.13
2019-04-11T08:46:24.998Z,61.51
2019-04-11T08:48:57.400Z,61.84
2019-04-11T08:51:29.331Z,61.71
2019-04-11T08:54:17.488Z,61.80
2019-04-11T08:56:47.441Z,62.79
2019-04-11T08:59:37.672Z,61.83
2019-04-11T09:02:08.708Z,62.79
2019-04-11T09:05:12.069Z,62.00
2019-04-11T09:07:54.109Z,61.92
2019-04-11T09:10:42.358Z,62.59
2019-04-11T09:13:22.929Z,62.41
2019-04-11T09:16:10.175Z,61.85
2019-04-11T09:18:39.522Z,60.85
2019-04-11T09:21:40.395Z,58.91
2019-04-11T09:24:24.311Z,58.98
2019-04-11T09:27:16.839Z,58.23
2019-04-11T09:29:50.374Z,61.13
2019-04-11T09:32:42.482Z,59.46
2019-04-11T09:35:22.088Z,58.90
2019-04-11T09:37:52.289Z,58.47
2019-04-11T09:40:52.655Z,61.33
2019-04-11T09:43:24.311Z,59.13
2019-04-11T09:46:10.331Z,58.59
2019-04-11T09:49:06.669Z,60.49
2019-04-11T09:52:07.363Z,60.76
2019-04-11T09:54:56.812Z,60.62
2019-04-11T09:57:38.352Z,58.92
2019-04-11T10:00:28.737Z,58.70
2019-04-11T10:03:09.089Z,59.82
2019-04-11T10:05:46.947Z,57.85
2019-04-11T10:08:35.507Z,58.98
2019-04-11T10:11:24.120Z,60.26
2019-04-11T10:14:09.268Z,59.10
2019-04-11T10:16:56.300Z,58.49
2019-04-11T10:19:44.344Z,58.79
2019-04-11T10:22:48.519Z,56.13
2019-04-11T10:25:30.804Z,57.41
2019-04-11T10:28:21.717Z,59.03
2019-04-11T10:31:23.754Z,58.62
2019-04-11T10:34:24.079Z,57.88
2019-04-11T10:37:07.527Z,57.79
2019-04-11T10:40:00.098Z,55.15
2019-04-11T10:42:31.059Z,54.29
2019-04-11T10:45:25.397Z,56.38
2019-04-11T10:48:09.618Z,58.72
2019-04-11T10:51:10.838Z,58.20
2019-04-11T10:53:43.747Z,57.03
2019-04-11T10:56:53.675Z,58.45
2019-04-11T10:59:28.025Z,56.71
2019-04-11T11:02:08.635Z,56.99
2019-04-11T11:04:45.025Z,57.96
2019-04-11T11:07:18.283Z,55.96
2019-04-11T11:10:07.176Z,55.33
2019-04-11T11:12:59.417Z,58.22
2019-04-11T11:15:42.265Z,58.01
2019-04-11T11:19:01.962Z,58.63
2019-04-11T11:21:17.623Z,55.42
2019-04-11T11:24:07.676Z,57.33
2019-04-11T11:26:39.309Z,57.67
2019-04-11T11:29:47.348Z,55.33
2019-04-11T11:32:25.186Z,56.50
2019-04-11T11:34:59.654Z,57.40
2019-04-11T11:37:53.956Z,55.04
2019-04-11T11:40:52.144Z,56.16
2019-04-11T11:43:23.868Z,50.38
2019-04-11T11:46:12.180Z,54.09
2019-04-11T11:48:46.382Z,56.27
2019-04-11T11:51:37.515Z,56.92
2019-04-11T11:54:15.602Z,55.29
2019-04-11T11:56:46.420Z,57.59
2019-04-11T11:59:36.385Z,57.86
2019-04-11T12:02:09.118Z,56.74
2019-04-11T12:05:07.826Z,56.46
2019-04-11T12:07:39.473Z,57.28
2019-04-11T12:10:26.619Z,57.37
2019-04-11T12:13:14.705Z,56.80
2019-04-11T12:16:02.086Z,54.08
2019-04-11T12:18:51.695Z,54.30
2019-04-11T12:21:26.364Z,56.90
2019-04-11T12:24:32.390Z,54.62
2019-04-11T12:27:20.573Z,57.16
2019-04-11T12:30:23.469Z,53.62
2019-04-11T12:33:01.548Z,55.42
2019-04-11T12:35:57.947Z,54.38
2019-04-11T12:38:49.836Z,56.71
2019-04-11T12:41:36.586Z,56.42
2019-04-11T12:44:26.684Z,56.13
2019-04-11T12:47:15.223Z,56.27
2019-04-11T12:50:10.101Z,53.08
2019-04-11T12:52:42.565Z,56.70
2019-04-11T12:55:15.203Z,56.09
2019-04-11T12:58:09.712Z,55.57
2019-04-11T13:00:59.360Z,56.35
2019-04-11T13:03:46.905Z,53.20
2019-04-11T13:06:34.853Z,54.46
2019-04-11T13:09:13.984Z,53.58
2019-04-11T13:11:44.696Z,56.70
2019-04-11T13:14:34.408Z,56.47
2019-04-11T13:17:04.931Z,56.72
2019-04-11T13:20:04.085Z,56.22
2019-04-11T13:22:25.170Z,54.34
2019-04-11T13:25:12.067Z,56.76
2019-04-11T13:27:48.276Z,54.49
2019-04-11T13:30:38.832Z,54.20
2019-04-11T13:33:36.837Z,54.56
2019-04-11T13:36:23.786Z,56.09
2019-04-11T13:38:53.036Z,55.39
2019-04-11T13:41:57.023Z,56.53
2019-04-11T13:44:32.439Z,54.45
2019-04-11T13:47:23.572Z,55.97
2019-04-11T13:49:57.336Z,54.48
2019-04-11T13:52:45.637Z,55.28
2019-04-11T13:55:20.946Z,56.11
2019-04-11T13:58:12.081Z,56.57
2019-04-11T14:00:57.888Z,56.97
2019-04-11T14:03:49.580Z,55.43
2019-04-11T14:06:34.961Z,57.09
2019-04-11T14:09:23.912Z,56.27
2019-04-11T14:12:05.720Z,55.49
2019-04-11T14:14:40.209Z,57.21
2019-04-11T14:17:18.284Z,56.66
2019-04-11T14:20:02.998Z,57.04
2019-04-11T14:22:43.411Z,57.09
2019-04-11T14:25:21.723Z,57.47
2019-04-11T14:27:53.501Z,56.74
2019-04-11T14:30:38.661Z,57.02
2019-04-11T14:33:08.443Z,57.35
2019-04-11T14:36:08.724Z,57.67
2019-04-11T14:38:47.941Z,57.28
2019-04-11T14:41:28.228Z,57.38
2019-04-11T14:44:02.901Z,57.74
2019-04-11T14:46:52.415Z,57.26
2019-04-11T14:49:24.021Z,57.49
2019-04-11T14:52:17.272Z,57.84
2019-04-11T14:54:51.385Z,57.40
2019-04-11T14:57:55.057Z,57.67
2019-04-11T15:00:36.561Z,56.30
2019-04-11T15:03:44.240Z,56.56
2019-04-11T15:06:31.455Z,56.47
2019-04-11T15:09:31.923Z,56.77
2019-04-11T15:12:05.276Z,57.41
2019-04-11T15:14:55.017Z,57.66
2019-04-11T15:17:37.984Z,57.71
2019-04-11T15:20:24.345Z,57.62
2019-04-11T15:22:59.722Z,57.60
2019-04-11T15:26:09.293Z,57.28
2019-04-11T15:29:13.610Z,57.15
2019-04-11T15:32:12.970Z,56.12
2019-04-11T15:34:52.885Z,56.41
2019-04-11T15:37:50.273Z,56.75
2019-04-11T15:40:50.617Z,56.13
2019-04-11T15:43:42.640Z,56.32
2019-04-11T15:46:21.699Z,55.51
2019-04-11T15:49:20.480Z,53.73
2019-04-11T15:51:52.593Z,53.53
2019-04-11T15:54:44.510Z,53.50
2019-04-11T15:57:32.884Z,52.05
2019-04-11T16:00:30.631Z,54.09
2019-04-11T16:03:29.005Z,54.71
2019-04-11T16:06:15.905Z,52.82
2019-04-11T16:08:52.263Z,54.56
2019-04-11T16:11:41.315Z,53.43
2019-04-11T16:14:21.151Z,53.85
2019-04-11T16:17:13.760Z,54.54
2019-04-11T16:20:00.967Z,54.05
2019-04-11T16:23:08.051Z,54.49
2019-04-11T16:25:49.990Z,55.23
2019-04-11T16:28:42.124Z,55.15
2019-04-11T16:31:13.841Z,54.84
2019-04-11T16:33:54.791Z,55.67
2019-04-11T16:36:41.969Z,55.82
2019-04-11T16:39:50.332Z,55.22
2019-04-11T16:42:21.823Z,54.35
2019-04-11T16:45:18.445Z,54.55
2019-04-11T16:48:15.659Z,55.94
2019-04-11T16:50:44.980Z,55.70
2019-04-11T16:53:14.225Z,55.98
2019-04-11T16:55:43.792Z,56.12
2019-04-11T16:58:16.948Z,55.62
2019-04-11T17:00:45.910Z,55.20
2019-04-11T17:03:17.190Z,56.09
2019-04-11T17:05:55.996Z,55.12
2019-04-11T17:08:38.223Z,55.46
2019-04-11T17:11:09.697Z,55.94
2019-04-11T17:13:39.100Z,56.36
2019-04-11T17:16:16.022Z,56.98
2019-04-11T17:18:46.403Z,56.65
2019-04-11T17:21:16.214Z,57.00
2019-04-11T17:23:47.169Z,57.20
2019-04-11T17:26:16.845Z,57.84
2019-04-11T17:28:46.985Z,58.01
2019-04-11T17:31:18.599Z,57.98
2019-04-11T17:33:50.373Z,58.12
2019-04-11T17:36:19.174Z,59.16
2019-04-11T17:38:48.690Z,59.23
2019-04-11T17:41:18.173Z,58.84
2019-04-11T17:43:51.365Z,59.02
2019-04-11T17:46:18.544Z,59.84
2019-04-11T17:48:50.301Z,60.03
2019-04-11T17:51:18.275Z,59.69
2019-04-11T17:53:47.471Z,58.79
2019-04-11T17:56:16.984Z,60.63
2019-04-11T17:58:46.247Z,60.76
2019-04-11T18:01:15.510Z,60.77
2019-04-11T18:03:45.248Z,60.21
2019-04-11T18:06:16.884Z,60.33
2019-04-11T18:08:46.716Z,60.45
2019-04-11T18:11:17.352Z,60.82
2019-04-11T18:13:48.537Z,60.09
2019-04-11T18:16:20.169Z,60.59
2019-04-11T18:18:49.620Z,61.08
2019-04-11T18:21:19.038Z,60.94
2019-04-11T18:23:50.078Z,59.87
2019-04-11T18:26:21.466Z,59.52
2019-04-11T18:28:51.971Z,59.72
2019-04-11T18:31:24.976Z,60.19
2019-04-11T18:33:54.895Z,60.50
2019-04-11T18:36:25.264Z,60.47
2019-04-11T18:38:55.381Z,60.22
2019-04-11T18:41:25.324Z,60.19
2019-04-11T18:43:55.023Z,61.48
2019-04-11T18:46:25.016Z,60.11
2019-04-11T18:48:54.689Z,61.36
2019-04-11T18:51:24.191Z,61.89
2019-04-11T18:53:54.722Z,60.67
2019-04-11T18:56:24.045Z,61.81
2019-04-11T18:58:53.048Z,60.91
2019-04-11T19:01:22.126Z,61.87
2019-04-11T19:03:51.154Z,62.58
2019-04-11T19:06:27.630Z,60.92
2019-04-11T19:08:50.779Z,61.68
2019-04-11T19:11:19.951Z,62.20
2019-04-11T19:13:48.945Z,61.84
2019-04-11T19:16:17.981Z,62.01
2019-04-11T19:18:47.798Z,62.98
2019-04-11T19:21:21.195Z,61.93
2019-04-11T19:23:50.239Z,63.00
2019-04-11T19:26:19.258Z,61.63
2019-04-11T19:28:49.265Z,60.91
2019-04-11T19:31:18.225Z,61.95
2019-04-11T19:33:49.504Z,62.08
2019-04-11T19:36:18.754Z,61.47
2019-04-11T19:38:47.865Z,61.20
2019-04-11T19:41:20.498Z,61.13
2019-04-11T19:43:49.906Z,61.06
2019-04-11T19:46:20.461Z,61.95
2019-04-11T19:48:50.323Z,61.04
2019-04-11T19:51:19.359Z,62.16
2019-04-11T19:53:49.992Z,62.01
2019-04-11T19:56:29.099Z,61.43
2019-04-11T19:59:02.015Z,61.82
2019-04-11T20:01:30.733Z,60.92
2019-04-11T20:03:59.861Z,61.62
2019-04-11T20:06:29.152Z,61.15
2019-04-11T20:09:01.531Z,61.25
2019-04-11T20:11:30.343Z,60.99
2019-04-11T20:14:03.182Z,61.66
2019-04-11T20:16:41.098Z,61.71
2019-04-11T20:19:03.196Z,61.03
2019-04-11T20:21:47.192Z,61.79
2019-04-11T20:24:33.045Z,61.17
2019-04-11T20:27:07.092Z,61.17
2019-04-11T20:29:38.053Z,60.99
2019-04-11T20:32:15.298Z,62.22
2019-04-11T20:34:50.477Z,61.92
2019-04-11T20:37:39.418Z,61.88
2019-04-11T20:40:11.429Z,62.35
2019-04-11T20:42:43.712Z,61.79
2019-04-11T20:45:18.943Z,61.18
2019-04-11T20:47:53.827Z,61.58
2019-04-11T20:50:24.615Z,62.10
2019-04-11T20:52:55.455Z,61.95
2019-04-11T20:55:24.887Z,63.03
2019-04-11T20:57:57.736Z,61.78
2019-04-11T21:00:50.625Z,62.79
2019-04-11T21:03:22.502Z,62.80
2019-04-11T21:05:51.819Z,63.25
2019-04-11T21:08:21.988Z,61.83
2019-04-11T21:10:50.842Z,62.69
2019-04-11T21:13:19.775Z,63.08
2019-04-11T21:15:48.758Z,62.69
2019-04-11T21:18:17.651Z,62.03
2019-04-11T21:20:46.801Z,62.72
2019-04-11T21:23:24.336Z,62.42
2019-04-11T21:25:46.904Z,62.73
2019-04-11T21:28:16.074Z,63.40
2019-04-11T21:30:44.862Z,63.84
2019-04-11T21:33:15.627Z,63.33
2019-04-11T21:35:44.793Z,64.25
2019-04-11T21:38:13.988Z,62.92
2019-04-11T21:40:44.602Z,63.49
2019-04-11T21:43:16.075Z,63.64
2019-04-11T21:45:45.881Z,62.75
2019-04-11T21:48:15.013Z,64.19
2019-04-11T21:50:44.048Z,64.01
2019-04-11T21:53:14.337Z,62.72
2019-04-11T21:55:47.164Z,64.56
2019-04-11T21:58:14.586Z,63.30
2019-04-11T22:00:46.894Z,63.81
2019-04-11T22:03:15.993Z,64.34
2019-04-11T22:05:44.871Z,63.73
2019-04-11T22:08:13.884Z,64.59
2019-04-11T22:10:42.717Z,63.18
2019-04-11T22:13:11.668Z,63.68
2019-04-11T22:15:42.517Z,63.65
2019-04-11T22:18:15.900Z,65.20
2019-04-11T22:20:41.886Z,65.48
2019-04-11T22:23:11.068Z,64.59
2019-04-11T22:25:39.817Z,63.99
2019-04-11T22:28:08.894Z,64.98
2019-04-11T22:30:38.075Z,64.99
2019-04-11T22:33:13.698Z,64.60
2019-04-11T22:35:42.463Z,66.26
2019-04-11T22:38:11.740Z,65.08
2019-04-11T22:40:40.720Z,65.62
2019-04-11T22:43:22.522Z,66.63
2019-04-11T22:45:40.576Z,65.37
2019-04-11T22:48:09.474Z,65.79
2019-04-11T22:50:40.756Z,66.12
2019-04-11T22:53:12.804Z,65.99
2019-04-11T22:55:41.292Z,66.36
2019-04-11T22:58:13.988Z,66.04
2019-04-11T23:00:45.009Z,66.20
2019-04-11T23:03:31.034Z,66.23
2019-04-11T23:06:01.879Z,66.25
2019-04-11T23:08:32.017Z,66.76
2019-04-11T23:11:01.406Z,66.43
2019-04-11T23:13:32.049Z,67.00
2019-04-11T23:16:03.973Z,66.72
2019-04-11T23:18:33.070Z,66.67
2019-04-11T23:21:01.927Z,67.76
2019-04-11T23:23:30.913Z,68.96
2019-04-11T23:26:00.513Z,67.15
2019-04-11T23:28:29.561Z,66.85
2019-04-11T23:30:58.564Z,67.05
2019-04-11T23:33:27.307Z,68.13
2019-04-11T23:35:56.170Z,67.30
2019-04-11T23:38:25.160Z,67.21
2019-04-11T23:40:54.010Z,67.33
2019-04-11T23:43:22.818Z,67.54
2019-04-11T23:45:52.250Z,67.99
2019-04-11T23:48:23.737Z,69.13
2019-04-11T23:50:54.790Z,67.52
2019-04-11T23:53:28.287Z,68.18
2019-04-11T23:55:59.830Z,67.36
2019-04-11T23:58:26.706Z,67.99
